createdAt,value
2023-03-29T00:00:08.743Z,24.2
2023-03-29T00:01:10.578Z,24.2
2023-03-29T00:02:38.027Z,24.3
2023-03-29T00:03:40.410Z,24.3
2023-03-29T00:04:42.794Z,24.3
2023-03-29T00:05:45.021Z,24.3
2023-03-29T00:06:46.865Z,24.3
2023-03-29T00:07:48.660Z,24.3
2023-03-29T00:08:50.571Z,24.3
2023-03-29T00:09:52.461Z,24.2
2023-03-29T00:10:54.394Z,24.2
2023-03-29T00:11:56.324Z,24.2
2023-03-29T00:12:58.169Z,24.2
2023-03-29T00:14:00.062Z,24.2
2023-03-29T00:15:02.157Z,24.2
2023-03-29T00:16:04.027Z,24.2
2023-03-29T00:17:05.972Z,24.2
2023-03-29T00:18:08.553Z,24.2
2023-03-29T00:19:10.594Z,24.2
2023-03-29T00:20:12.488Z,24.2
2023-03-29T00:21:14.303Z,24.2
2023-03-29T00:22:16.149Z,24.2
2023-03-29T00:23:18.011Z,24.2
2023-03-29T00:24:19.852Z,24.2
2023-03-29T00:25:21.777Z,24.2
2023-03-29T00:26:24.195Z,24.3
2023-03-29T00:27:25.993Z,24.3
2023-03-29T00:28:27.765Z,24.2
2023-03-29T00:29:29.609Z,24.3
2023-03-29T00:30:31.457Z,24.3
2023-03-29T00:31:33.343Z,24.2
2023-03-29T00:32:35.474Z,24.2
2023-03-29T00:33:37.532Z,24.2
2023-03-29T00:34:39.373Z,24.2
2023-03-29T00:35:41.231Z,24.2
2023-03-29T00:36:43.109Z,24.2
2023-03-29T00:37:44.917Z,24.2
2023-03-29T00:38:46.783Z,24.3
2023-03-29T00:39:48.627Z,24.3
2023-03-29T00:40:50.643Z,24.3
2023-03-29T00:41:52.568Z,24.2
2023-03-29T00:42:54.713Z,24.2
2023-03-29T00:43:56.563Z,24.2
2023-03-29T00:44:58.492Z,24.2
2023-03-29T00:46:00.433Z,24.2
2023-03-29T00:47:02.411Z,24.2
2023-03-29T00:48:04.287Z,24.2
2023-03-29T00:49:06.363Z,24.2
2023-03-29T00:50:08.248Z,24.2
2023-03-29T00:51:10.138Z,24.2
2023-03-29T00:52:12.046Z,24.2
2023-03-29T00:53:13.898Z,24.2
2023-03-29T00:54:15.814Z,24.2
2023-03-29T00:55:17.717Z,24.2
2023-03-29T00:56:19.603Z,24.2
2023-03-29T00:57:21.566Z,24.2
2023-03-29T00:58:23.870Z,24.2
2023-03-29T00:59:25.738Z,24.2
2023-03-29T01:00:27.577Z,24.2
2023-03-29T01:01:29.468Z,24.2
2023-03-29T01:02:31.467Z,24.2
2023-03-29T01:03:33.674Z,24.2
2023-03-29T01:04:36.048Z,24.2
2023-03-29T01:05:37.966Z,24.2
2023-03-29T01:06:39.818Z,24.2
2023-03-29T01:07:41.646Z,24.2
2023-03-29T01:08:43.369Z,24.2
2023-03-29T01:09:45.298Z,24.2
2023-03-29T01:10:47.199Z,24.2
2023-03-29T01:11:49.042Z,24.2
2023-03-29T01:12:50.994Z,24.2
2023-03-29T01:13:52.963Z,24.2
2023-03-29T01:14:54.817Z,24.2
2023-03-29T01:15:56.698Z,24.2
2023-03-29T01:16:58.828Z,24.2
2023-03-29T01:18:00.724Z,24.2
2023-03-29T01:19:02.918Z,24.2
2023-03-29T01:20:04.773Z,24.2
2023-03-29T01:21:06.636Z,24.1
2023-03-29T01:22:08.574Z,24.1
2023-03-29T01:23:10.490Z,24.2
2023-03-29T01:24:12.389Z,24.2
2023-03-29T01:25:14.270Z,24.2
2023-03-29T01:26:16.187Z,24.1
2023-03-29T01:27:18.100Z,24.1
2023-03-29T01:28:20.011Z,24.1
2023-03-29T01:29:21.836Z,24.1
2023-03-29T01:30:23.721Z,24.1
2023-03-29T01:31:25.704Z,24.1
2023-03-29T01:32:27.669Z,24.1
2023-03-29T01:33:29.705Z,24.1
2023-03-29T01:34:31.902Z,24.1
2023-03-29T01:35:33.768Z,24.1
2023-03-29T01:36:35.711Z,24.2
2023-03-29T01:37:37.609Z,24.2
2023-03-29T01:38:39.416Z,24.2
2023-03-29T01:39:41.247Z,24.2
2023-03-29T01:40:43.119Z,24.2
2023-03-29T01:41:45.025Z,24.2
2023-03-29T01:42:46.901Z,24.2
2023-03-29T01:43:48.791Z,24.2
2023-03-29T01:44:50.607Z,24.2
2023-03-29T01:45:52.423Z,24.1
2023-03-29T01:46:54.457Z,24.1
2023-03-29T01:47:56.574Z,24.1
2023-03-29T01:48:58.631Z,24.1
2023-03-29T01:50:00.476Z,24.1
2023-03-29T01:51:02.639Z,24.1
2023-03-29T01:52:05.698Z,24.1
2023-03-29T01:53:07.638Z,24.1
2023-03-29T01:54:09.718Z,24.1
2023-03-29T01:55:11.606Z,24.1
2023-03-29T01:56:13.934Z,24.1
2023-03-29T01:57:15.771Z,24.1
2023-03-29T01:58:17.833Z,24.1
2023-03-29T01:59:19.702Z,24.1
2023-03-29T02:00:21.488Z,24.1
2023-03-29T02:01:23.428Z,24.1
2023-03-29T02:02:25.344Z,24.1
2023-03-29T02:03:27.758Z,24.1
2023-03-29T02:04:30.056Z,24.1
2023-03-29T02:05:31.910Z,24.1
2023-03-29T02:06:33.831Z,24.1
2023-03-29T02:07:35.717Z,24.1
2023-03-29T02:08:37.553Z,24.1
2023-03-29T02:09:39.296Z,24.1
2023-03-29T02:10:41.245Z,24.1
2023-03-29T02:11:43.121Z,24.1
2023-03-29T02:12:44.964Z,24.1
2023-03-29T02:13:46.719Z,24.1
2023-03-29T02:14:48.593Z,24.1
2023-03-29T02:15:50.491Z,24.1
2023-03-29T02:16:52.617Z,24.1
2023-03-29T02:17:54.534Z,24.1
2023-03-29T02:18:56.673Z,24.1
2023-03-29T02:19:58.525Z,24.1
2023-03-29T02:21:00.670Z,24.1
2023-03-29T02:22:03.609Z,24.1
2023-03-29T02:23:05.530Z,24.1
2023-03-29T02:24:07.363Z,24.1
2023-03-29T02:25:09.366Z,24.1
2023-03-29T02:26:11.332Z,24.1
2023-03-29T02:27:13.281Z,24.1
2023-03-29T02:28:15.203Z,24.1
2023-03-29T02:29:17.022Z,24.1
2023-03-29T02:30:18.990Z,24.1
2023-03-29T02:31:20.810Z,24.1
2023-03-29T02:32:22.813Z,24.1
2023-03-29T02:33:24.634Z,24.1
2023-03-29T02:34:26.361Z,24.1
2023-03-29T02:35:28.320Z,24.1
2023-03-29T02:36:30.206Z,24.1
2023-03-29T02:37:32.129Z,24.1
2023-03-29T02:38:33.968Z,24.1
2023-03-29T02:39:35.897Z,24.1
2023-03-29T02:40:37.882Z,24.1
2023-03-29T02:41:39.805Z,24.1
2023-03-29T02:42:41.697Z,24.1
2023-03-29T02:43:43.534Z,24.1
2023-03-29T02:44:45.382Z,24.1
2023-03-29T02:45:47.272Z,24.1
2023-03-29T02:46:49.260Z,24.1
2023-03-29T02:47:51.360Z,24.1
2023-03-29T02:48:53.502Z,24.1
2023-03-29T02:49:55.315Z,24
2023-03-29T02:50:57.293Z,24.1
2023-03-29T02:51:59.615Z,24.1
2023-03-29T02:53:01.591Z,24.1
2023-03-29T02:54:03.464Z,24.1
2023-03-29T02:55:05.213Z,24.1
2023-03-29T02:56:07.068Z,24.1
2023-03-29T02:57:09.024Z,24.1
2023-03-29T02:58:11.003Z,24
2023-03-29T02:59:12.825Z,24
2023-03-29T03:00:16.334Z,23.7
2023-03-29T03:01:18.293Z,23.3
2023-03-29T03:02:20.297Z,23.1
2023-03-29T03:03:22.529Z,23.1
2023-03-29T03:04:25.008Z,23
2023-03-29T03:05:26.807Z,23
2023-03-29T03:06:28.513Z,22.9
2023-03-29T03:07:30.403Z,22.7
2023-03-29T03:08:32.244Z,22.7
2023-03-29T03:09:34.223Z,22.7
2023-03-29T03:10:36.184Z,22.6
2023-03-29T03:11:38.088Z,22.6
2023-03-29T03:12:39.947Z,22.6
2023-03-29T03:13:41.851Z,22.6
2023-03-29T03:14:43.737Z,22.6
2023-03-29T03:15:45.696Z,22.6
2023-03-29T03:16:47.603Z,22.5
2023-03-29T03:17:49.909Z,22.5
2023-03-29T03:18:52.072Z,22.4
2023-03-29T03:19:53.912Z,22.4
2023-03-29T03:20:55.765Z,22.4
2023-03-29T03:21:57.609Z,22.4
2023-03-29T03:22:59.405Z,22.3
2023-03-29T03:24:01.219Z,22.3
2023-03-29T03:25:03.079Z,22.2
2023-03-29T03:26:04.857Z,22.2
2023-03-29T03:27:06.618Z,22.1
2023-03-29T03:28:08.549Z,22.1
2023-03-29T03:29:10.466Z,22.1
2023-03-29T03:30:12.318Z,22.1
2023-03-29T03:31:14.178Z,22.1
2023-03-29T03:32:16.523Z,22
2023-03-29T03:33:18.376Z,22
2023-03-29T03:34:20.219Z,22
2023-03-29T03:35:22.008Z,22
2023-03-29T03:36:23.812Z,22
2023-03-29T03:37:25.698Z,22
2023-03-29T03:38:27.461Z,21.9
2023-03-29T03:39:29.447Z,21.9
2023-03-29T03:40:31.325Z,21.9
2023-03-29T03:41:33.120Z,21.9
2023-03-29T03:42:34.807Z,21.8
2023-03-29T03:43:36.634Z,21.8
2023-03-29T03:44:38.470Z,21.8
2023-03-29T03:45:40.300Z,21.7
2023-03-29T03:46:42.220Z,21.7
2023-03-29T03:47:44.297Z,21.7
2023-03-29T03:48:46.400Z,21.6
2023-03-29T03:49:48.177Z,21.6
2023-03-29T03:50:50.016Z,21.6
2023-03-29T03:51:52.647Z,21.5
2023-03-29T03:52:54.651Z,21.5
2023-03-29T03:53:56.538Z,21.4
2023-03-29T03:54:58.451Z,21.4
2023-03-29T03:56:00.375Z,21.3
2023-03-29T03:57:02.276Z,21.2
2023-03-29T03:58:04.306Z,21.1
2023-03-29T03:59:06.220Z,21
2023-03-29T04:00:08.119Z,21
2023-03-29T04:01:09.979Z,20.9
2023-03-29T04:02:11.823Z,20.9
2023-03-29T04:03:13.908Z,21
2023-03-29T04:04:16.530Z,21.1
2023-03-29T04:05:18.685Z,21.2
2023-03-29T04:06:20.679Z,21.3
2023-03-29T04:07:22.587Z,21.4
2023-03-29T04:08:24.452Z,21.6
2023-03-29T04:09:26.265Z,21.6
2023-03-29T04:10:28.162Z,21.7
2023-03-29T04:11:29.891Z,21.9
2023-03-29T04:12:31.800Z,22
2023-03-29T04:13:33.694Z,22
2023-03-29T04:14:35.536Z,22
2023-03-29T04:15:37.407Z,22
2023-03-29T04:16:39.350Z,22.1
2023-03-29T04:17:41.316Z,22.1
2023-03-29T04:18:43.967Z,22.2
2023-03-29T04:19:46.528Z,22.2
2023-03-29T04:20:48.401Z,22.3
2023-03-29T04:21:50.228Z,22.3
2023-03-29T04:22:52.147Z,22.3
2023-03-29T04:23:54.042Z,22.4
2023-03-29T04:24:55.965Z,22.5
2023-03-29T04:25:57.850Z,22.5
2023-03-29T04:26:59.799Z,22.5
2023-03-29T04:28:01.678Z,22.6
2023-03-29T04:29:03.494Z,22.7
2023-03-29T04:30:05.345Z,22.7
2023-03-29T04:31:07.251Z,22.8
2023-03-29T04:32:09.265Z,22.8
2023-03-29T04:33:11.170Z,22.8
2023-03-29T04:34:13.292Z,22.8
2023-03-29T04:35:15.219Z,22.8
2023-03-29T04:36:17.133Z,22.9
2023-03-29T04:37:19.296Z,22.9
2023-03-29T04:38:21.058Z,23
2023-03-29T04:39:22.816Z,23.1
2023-03-29T04:40:24.658Z,23.1
2023-03-29T04:41:26.625Z,23.2
2023-03-29T04:42:28.568Z,23.2
2023-03-29T04:43:30.526Z,23.2
2023-03-29T04:44:32.364Z,23.3
2023-03-29T04:45:34.298Z,23.4
2023-03-29T04:46:36.200Z,23.4
2023-03-29T04:47:38.356Z,23.5
2023-03-29T04:48:40.371Z,23.6
2023-03-29T04:49:42.270Z,23.7
2023-03-29T04:50:44.289Z,23.7
2023-03-29T04:51:46.090Z,23.8
2023-03-29T04:52:47.994Z,23.8
2023-03-29T04:53:49.835Z,23.9
2023-03-29T04:54:51.704Z,24
2023-03-29T04:55:53.624Z,24
2023-03-29T04:56:55.586Z,24.1
2023-03-29T04:57:57.463Z,24.1
2023-03-29T04:58:59.303Z,24.2
2023-03-29T05:00:01.180Z,24.2
2023-03-29T05:01:03.165Z,24.2
2023-03-29T05:02:05.833Z,24.3
2023-03-29T05:03:07.789Z,24.4
2023-03-29T05:04:11.399Z,24.4
2023-03-29T05:05:14.925Z,24.5
2023-03-29T05:06:16.833Z,24.5
2023-03-29T05:07:18.708Z,24.6
2023-03-29T05:08:20.405Z,24.7
2023-03-29T05:09:22.343Z,24.7
2023-03-29T05:10:24.324Z,24.8
2023-03-29T05:11:26.209Z,24.8
2023-03-29T05:12:28.055Z,24.8
2023-03-29T05:13:29.909Z,24.9
2023-03-29T05:14:31.761Z,24.9
2023-03-29T05:15:33.579Z,24.9
2023-03-29T05:16:35.325Z,25
2023-03-29T05:17:37.443Z,25
2023-03-29T05:18:39.668Z,25.1
2023-03-29T05:19:41.527Z,25.1
2023-03-29T05:20:43.507Z,25.1
2023-03-29T05:21:45.758Z,25.2
2023-03-29T05:22:47.697Z,25.2
2023-03-29T05:23:49.527Z,25.3
2023-03-29T05:24:51.379Z,25.3
2023-03-29T05:25:53.226Z,25.3
2023-03-29T05:26:55.029Z,25.3
2023-03-29T05:27:56.891Z,25.4
2023-03-29T05:28:58.787Z,25.4
2023-03-29T05:30:00.636Z,25.4
2023-03-29T05:31:02.672Z,25.4
2023-03-29T05:32:05.584Z,25.4
2023-03-29T05:33:07.556Z,25.4
2023-03-29T05:34:09.667Z,25.5
2023-03-29T05:35:11.532Z,25.5
2023-03-29T05:36:13.529Z,25.6
2023-03-29T05:37:15.624Z,25.6
2023-03-29T05:38:17.712Z,25.6
2023-03-29T05:39:20.040Z,25.7
2023-03-29T05:40:21.791Z,25.7
2023-03-29T05:41:23.525Z,25.7
2023-03-29T05:42:25.296Z,25.7
2023-03-29T05:43:27.227Z,25.7
2023-03-29T05:44:29.125Z,25.8
2023-03-29T05:45:31.312Z,25.8
2023-03-29T05:46:33.321Z,25.8
2023-03-29T05:47:35.118Z,25.8
2023-03-29T05:48:37.108Z,25.8
2023-03-29T05:49:38.860Z,25.8
2023-03-29T05:50:40.739Z,25.9
2023-03-29T05:51:44.532Z,25.9
2023-03-29T05:52:46.461Z,25.9
2023-03-29T05:53:48.298Z,25.9
2023-03-29T05:54:50.348Z,26
2023-03-29T05:55:52.202Z,26
2023-03-29T05:56:54.031Z,26
2023-03-29T05:57:56.014Z,26
2023-03-29T05:58:57.897Z,26.1
2023-03-29T05:59:59.844Z,26.1
2023-03-29T06:01:01.933Z,26.1
2023-03-29T06:02:04.848Z,26.1
2023-03-29T06:03:17.878Z,26.1
2023-03-29T06:04:24.072Z,26
2023-03-29T06:05:26.568Z,26.1
2023-03-29T06:06:28.413Z,26.1
2023-03-29T06:07:30.393Z,26.1
2023-03-29T06:08:32.253Z,26.1
2023-03-29T06:09:34.109Z,26.2
2023-03-29T06:10:36.075Z,26.2
2023-03-29T06:11:38.159Z,26.2
2023-03-29T06:12:40.036Z,26.2
2023-03-29T06:13:41.884Z,26.2
2023-03-29T06:14:43.759Z,26.2
2023-03-29T06:15:45.595Z,26.3
2023-03-29T06:16:47.533Z,26.2
2023-03-29T06:17:49.478Z,26.2
2023-03-29T06:18:51.583Z,26.2
2023-03-29T06:19:53.587Z,26.2
2023-03-29T06:20:55.354Z,26.3
2023-03-29T06:21:57.195Z,26.3
2023-03-29T06:22:59.078Z,26.3
2023-03-29T06:24:00.886Z,26.2
2023-03-29T06:25:03.443Z,26.3
2023-03-29T06:26:05.225Z,26.3
2023-03-29T06:27:07.055Z,26.2
2023-03-29T06:28:08.910Z,26.1
2023-03-29T06:29:10.769Z,26.1
2023-03-29T06:30:12.807Z,26
2023-03-29T06:31:14.708Z,25.9
2023-03-29T06:32:16.751Z,25.8
2023-03-29T06:33:18.602Z,25.8
2023-03-29T06:34:20.654Z,25.7
2023-03-29T06:35:22.974Z,25.6
2023-03-29T06:36:24.689Z,25.6
2023-03-29T06:37:26.794Z,25.5
2023-03-29T06:38:28.782Z,25.4
2023-03-29T06:39:30.605Z,25.5
2023-03-29T06:40:32.442Z,25.6
2023-03-29T06:41:34.610Z,25.6
2023-03-29T06:42:36.377Z,25.6
2023-03-29T06:43:38.094Z,25.7
2023-03-29T06:44:39.959Z,25.7
2023-03-29T06:45:41.783Z,25.7
2023-03-29T06:46:43.716Z,25.7
2023-03-29T06:47:45.736Z,25.7
2023-03-29T06:48:48.179Z,25.7
2023-03-29T06:49:50.155Z,25.8
2023-03-29T06:50:52.093Z,25.8
2023-03-29T06:51:53.916Z,25.8
2023-03-29T06:52:55.975Z,25.8
2023-03-29T06:53:57.752Z,25.8
2023-03-29T06:54:59.527Z,25.8
2023-03-29T06:56:01.420Z,25.8
2023-03-29T06:57:03.201Z,25.9
2023-03-29T06:58:05.028Z,25.9
2023-03-29T06:59:06.876Z,25.9
2023-03-29T07:00:08.775Z,25.9
2023-03-29T07:01:11.001Z,25.9
2023-03-29T07:02:13.173Z,26
2023-03-29T07:03:15.244Z,26
2023-03-29T07:04:17.342Z,26.1
2023-03-29T07:05:19.814Z,26.1
2023-03-29T07:06:21.735Z,26.1
2023-03-29T07:07:23.522Z,26.1
2023-03-29T07:08:25.362Z,26.1
2023-03-29T07:09:27.237Z,26.1
2023-03-29T07:10:29.141Z,26.2
2023-03-29T07:11:30.918Z,26.2
2023-03-29T07:12:32.697Z,26.3
2023-03-29T07:13:34.516Z,26.3
2023-03-29T07:14:36.708Z,26.3
2023-03-29T07:15:38.619Z,26.3
2023-03-29T07:16:40.437Z,26.3
2023-03-29T07:17:42.907Z,26.3
2023-03-29T07:18:44.811Z,26.3
2023-03-29T07:19:46.944Z,26.3
2023-03-29T07:20:48.699Z,26.3
2023-03-29T07:21:50.905Z,26.4
2023-03-29T07:22:52.672Z,26.4
2023-03-29T07:23:54.446Z,26.4
2023-03-29T07:24:56.333Z,26.4
2023-03-29T07:25:58.426Z,26.5
2023-03-29T07:27:03.675Z,26.4
2023-03-29T07:28:06.727Z,26.5
2023-03-29T07:29:08.509Z,26.5
2023-03-29T07:30:10.367Z,26.5
2023-03-29T07:31:12.766Z,26.5
2023-03-29T07:32:14.901Z,26.4
2023-03-29T07:33:17.079Z,26.4
2023-03-29T07:34:19.298Z,26.4
2023-03-29T07:35:21.120Z,26.4
2023-03-29T07:36:23.051Z,26.4
2023-03-29T07:37:25.070Z,26.5
2023-03-29T07:38:26.950Z,26.5
2023-03-29T07:39:28.734Z,26.5
2023-03-29T07:40:30.839Z,26.5
2023-03-29T07:41:32.797Z,26.6
2023-03-29T07:42:34.715Z,26.6
2023-03-29T07:43:36.494Z,26.6
2023-03-29T07:44:38.609Z,26.6
2023-03-29T07:45:40.820Z,26.6
2023-03-29T07:46:42.941Z,26.5
2023-03-29T07:47:45.277Z,26.5
2023-03-29T07:48:47.429Z,26.5
2023-03-29T07:49:49.463Z,26.5
2023-03-29T07:50:51.560Z,26.5
2023-03-29T07:51:53.917Z,26.6
2023-03-29T07:52:55.775Z,26.5
2023-03-29T07:53:57.811Z,26.5
2023-03-29T07:54:59.680Z,26.6
2023-03-29T07:56:01.546Z,26.7
2023-03-29T07:57:03.344Z,26.7
2023-03-29T07:58:05.411Z,26.6
2023-03-29T07:59:07.094Z,26.6
2023-03-29T08:00:08.867Z,26.6
2023-03-29T08:01:12.280Z,26.7
2023-03-29T08:02:21.347Z,26.6
2023-03-29T08:03:23.135Z,26.7
2023-03-29T08:04:25.473Z,26.6
2023-03-29T08:05:38.206Z,26.7
2023-03-29T08:06:44.004Z,26.7
2023-03-29T08:07:45.777Z,26.7
2023-03-29T08:08:47.717Z,26.6
2023-03-29T08:09:49.576Z,26.6
2023-03-29T08:10:51.658Z,26.6
2023-03-29T08:11:53.596Z,26.6
2023-03-29T08:12:55.704Z,26.6
2023-03-29T08:13:57.456Z,26.6
2023-03-29T08:14:59.347Z,26.6
2023-03-29T08:16:01.152Z,26.6
2023-03-29T08:17:03.000Z,26.6
2023-03-29T08:18:05.246Z,26.6
2023-03-29T08:19:07.295Z,26.6
2023-03-29T08:20:09.224Z,26.6
2023-03-29T08:21:11.059Z,26.6
2023-03-29T08:22:13.103Z,26.7
2023-03-29T08:23:15.069Z,26.7
2023-03-29T08:24:18.556Z,26.6
2023-03-29T08:25:22.867Z,26.6
2023-03-29T08:26:24.552Z,26.7
2023-03-29T08:27:26.660Z,26.7
2023-03-29T08:28:28.535Z,26.6
2023-03-29T08:29:30.336Z,26.6
2023-03-29T08:30:32.175Z,26.6
2023-03-29T08:31:34.129Z,26.6
2023-03-29T08:32:36.445Z,26.6
2023-03-29T08:33:38.511Z,26.5
2023-03-29T08:34:40.403Z,26.6
2023-03-29T08:35:42.326Z,26.6
2023-03-29T08:36:44.344Z,26.6
2023-03-29T08:37:46.366Z,26.5
2023-03-29T08:38:48.202Z,26.4
2023-03-29T08:39:49.973Z,26.5
2023-03-29T08:40:51.763Z,26.5
2023-03-29T08:41:53.482Z,26.5
2023-03-29T08:42:55.422Z,26.5
2023-03-29T08:43:57.236Z,26.5
2023-03-29T08:44:58.956Z,26.5
2023-03-29T08:46:00.950Z,26.5
2023-03-29T08:47:03.123Z,26.5
2023-03-29T08:48:05.282Z,26.5
2023-03-29T08:49:07.417Z,26.4
2023-03-29T08:50:09.283Z,26.5
2023-03-29T08:51:11.226Z,26.5
2023-03-29T08:52:13.171Z,26.5
2023-03-29T08:53:15.114Z,26.5
2023-03-29T08:54:16.971Z,26.5
2023-03-29T08:55:18.727Z,26.6
2023-03-29T08:56:20.580Z,26.6
2023-03-29T08:57:22.461Z,26.6
2023-03-29T08:58:24.663Z,26.6
2023-03-29T08:59:26.532Z,26.5
2023-03-29T09:00:28.389Z,26.5
2023-03-29T09:01:30.219Z,26.5
2023-03-29T09:02:32.112Z,26.5
2023-03-29T09:03:34.477Z,26.5
2023-03-29T09:04:36.704Z,26.5
2023-03-29T09:05:38.639Z,26.5
2023-03-29T09:06:40.592Z,26.5
2023-03-29T09:07:42.459Z,26.5
2023-03-29T09:08:44.212Z,26.5
2023-03-29T09:09:46.079Z,26.5
2023-03-29T09:10:47.975Z,26.5
2023-03-29T09:11:49.771Z,26.5
2023-03-29T09:12:51.822Z,26.5
2023-03-29T09:13:54.069Z,26.4
2023-03-29T09:14:55.838Z,26.5
2023-03-29T09:15:57.739Z,26.5
2023-03-29T09:16:59.823Z,26.5
2023-03-29T09:18:01.502Z,26.5
2023-03-29T09:19:03.621Z,26.5
2023-03-29T09:20:05.471Z,26.5
2023-03-29T09:21:07.785Z,26.5
2023-03-29T09:22:09.683Z,26.5
2023-03-29T09:23:11.445Z,26.5
2023-03-29T09:24:13.217Z,26.5
2023-03-29T09:25:15.066Z,26.5
2023-03-29T09:26:16.865Z,26.5
2023-03-29T09:27:18.627Z,26.5
2023-03-29T09:28:20.486Z,26.4
2023-03-29T09:29:22.621Z,26.4
2023-03-29T09:30:24.484Z,26.4
2023-03-29T09:31:26.202Z,26.3
2023-03-29T09:32:28.354Z,26.3
2023-03-29T09:33:30.237Z,26.3
2023-03-29T09:34:32.161Z,26.3
2023-03-29T09:35:34.051Z,26.4
2023-03-29T09:36:35.956Z,26.4
2023-03-29T09:37:37.868Z,26.4
2023-03-29T09:38:39.804Z,26.4
2023-03-29T09:39:41.649Z,26.4
2023-03-29T09:40:43.409Z,26.4
2023-03-29T09:41:45.256Z,26.4
2023-03-29T09:42:47.204Z,26.4
2023-03-29T09:43:49.081Z,26.3
2023-03-29T09:44:50.947Z,26.3
2023-03-29T09:45:52.697Z,26.3
2023-03-29T09:46:54.859Z,26.4
2023-03-29T09:47:56.742Z,26.4
2023-03-29T09:48:59.190Z,26.4
2023-03-29T09:50:01.087Z,26.4
2023-03-29T09:51:03.192Z,26.5
2023-03-29T09:52:06.425Z,26.5
2023-03-29T09:53:08.195Z,26.5
2023-03-29T09:54:10.121Z,26.4
2023-03-29T09:55:11.959Z,26.4
2023-03-29T09:56:14.604Z,26.4
2023-03-29T09:57:16.550Z,26.4
2023-03-29T09:58:18.532Z,26.5
2023-03-29T09:59:20.393Z,26.4
2023-03-29T10:00:22.363Z,26.4
2023-03-29T10:01:24.406Z,26.4
2023-03-29T10:02:27.154Z,26.4
2023-03-29T10:03:29.312Z,26.5
2023-03-29T10:04:31.193Z,26.6
2023-03-29T10:05:33.239Z,26.5
2023-03-29T10:06:35.083Z,26.4
2023-03-29T10:07:36.832Z,26.5
2023-03-29T10:08:38.734Z,26.5
2023-03-29T10:09:40.578Z,26.5
2023-03-29T10:10:43.806Z,26.4
2023-03-29T10:11:45.643Z,26.4
2023-03-29T10:12:47.418Z,26.4
2023-03-29T10:13:49.181Z,26.4
2023-03-29T10:14:53.143Z,26.5
2023-03-29T10:15:55.973Z,26.5
2023-03-29T10:16:57.818Z,26.5
2023-03-29T10:18:00.180Z,26.5
2023-03-29T10:19:02.194Z,26.5
2023-03-29T10:20:04.486Z,26.5
2023-03-29T10:21:10.158Z,26.5
2023-03-29T10:22:12.291Z,26.5
2023-03-29T10:23:14.137Z,26.5
2023-03-29T10:24:15.857Z,26.5
2023-03-29T10:25:17.742Z,26.5
2023-03-29T10:26:19.599Z,26.5
2023-03-29T10:27:21.497Z,26.5
2023-03-29T10:28:23.337Z,26.4
2023-03-29T10:29:25.268Z,26.5
2023-03-29T10:30:27.078Z,26.5
2023-03-29T10:31:28.973Z,26.5
2023-03-29T10:32:31.105Z,26.5
2023-03-29T10:33:33.342Z,26.5
2023-03-29T10:34:35.219Z,26.5
2023-03-29T10:35:37.086Z,26.5
2023-03-29T10:36:39.015Z,26.4
2023-03-29T10:37:40.995Z,26.4
2023-03-29T10:38:42.939Z,26.5
2023-03-29T10:39:44.841Z,26.5
2023-03-29T10:40:46.721Z,26.5
2023-03-29T10:41:49.049Z,26.5
2023-03-29T10:42:50.674Z,26.5
2023-03-29T10:43:52.537Z,26.5
2023-03-29T10:44:54.467Z,26.6
2023-03-29T10:45:56.447Z,26.6
2023-03-29T10:46:58.655Z,26.6
2023-03-29T10:48:00.613Z,26.6
2023-03-29T10:49:02.736Z,26.6
2023-03-29T10:50:04.549Z,26.6
2023-03-29T10:51:06.401Z,26.7
2023-03-29T10:52:08.503Z,26.6
2023-03-29T10:53:10.476Z,26.6
2023-03-29T10:54:12.373Z,26.6
2023-03-29T10:55:14.231Z,26.6
2023-03-29T10:56:16.099Z,26.6
2023-03-29T10:57:17.938Z,26.7
2023-03-29T10:58:24.391Z,26.6
2023-03-29T10:59:26.226Z,26.7
2023-03-29T11:00:28.184Z,26.7
2023-03-29T11:01:30.444Z,26.7
2023-03-29T11:02:33.086Z,26.7
2023-03-29T11:03:35.695Z,26.7
2023-03-29T11:04:37.728Z,26.7
2023-03-29T11:05:39.485Z,26.6
2023-03-29T11:06:41.318Z,26.6
2023-03-29T11:07:43.101Z,26.7
2023-03-29T11:08:45.031Z,26.7
2023-03-29T11:09:46.795Z,26.7
2023-03-29T11:10:48.720Z,26.7
2023-03-29T11:11:52.753Z,26.7
2023-03-29T11:13:17.979Z,26.7
2023-03-29T11:14:19.791Z,26.7
2023-03-29T11:15:21.679Z,26.7
2023-03-29T11:16:23.521Z,26.7
2023-03-29T11:17:25.558Z,26.7
2023-03-29T11:18:27.603Z,26.8
2023-03-29T11:19:29.445Z,26.7
2023-03-29T11:20:31.261Z,26.7
2023-03-29T11:21:33.231Z,26.8
2023-03-29T11:22:35.102Z,26.8
2023-03-29T11:23:37.004Z,26.8
2023-03-29T11:24:38.972Z,26.8
2023-03-29T11:25:40.727Z,26.7
2023-03-29T11:26:42.665Z,26.8
2023-03-29T11:27:44.459Z,26.8
2023-03-29T11:28:46.251Z,26.8
2023-03-29T11:29:51.007Z,26.8
2023-03-29T11:30:52.830Z,26.8
2023-03-29T11:31:54.902Z,26.9
2023-03-29T11:32:57.116Z,26.9
2023-03-29T11:33:59.348Z,26.9
2023-03-29T11:35:01.567Z,27
2023-03-29T11:36:03.442Z,27
2023-03-29T11:37:05.276Z,26.9
2023-03-29T11:38:07.136Z,26.8
2023-03-29T11:39:09.062Z,26.8
2023-03-29T11:40:10.911Z,26.9
2023-03-29T11:41:13.204Z,26.9
2023-03-29T11:42:14.951Z,26.8
2023-03-29T11:43:16.797Z,26.8
2023-03-29T11:44:18.654Z,26.8
2023-03-29T11:45:20.366Z,26.8
2023-03-29T11:46:22.256Z,26.8
2023-03-29T11:47:24.316Z,26.8
2023-03-29T11:48:26.190Z,26.9
2023-03-29T11:49:28.283Z,26.9
2023-03-29T11:50:30.231Z,26.8
2023-03-29T11:51:32.120Z,26.8
2023-03-29T11:52:34.070Z,26.8
2023-03-29T11:53:35.898Z,26.9
2023-03-29T11:54:37.662Z,26.9
2023-03-29T11:55:39.592Z,26.8
2023-03-29T11:56:41.401Z,26.8
2023-03-29T11:57:43.312Z,26.8
2023-03-29T11:58:45.159Z,26.8
2023-03-29T11:59:46.923Z,26.8
2023-03-29T12:00:48.617Z,26.8
2023-03-29T12:01:50.604Z,26.8
2023-03-29T12:02:52.562Z,26.9
2023-03-29T12:03:55.020Z,26.9
2023-03-29T12:04:57.440Z,26.8
2023-03-29T12:05:59.285Z,26.8
2023-03-29T12:07:01.383Z,26.8
2023-03-29T12:08:03.522Z,26.9
2023-03-29T12:09:05.442Z,26.8
2023-03-29T12:10:07.369Z,26.8
2023-03-29T12:11:09.355Z,26.7
2023-03-29T12:12:11.279Z,26.6
2023-03-29T12:13:13.010Z,26.7
2023-03-29T12:14:14.857Z,26.7
2023-03-29T12:15:16.719Z,26.8
2023-03-29T12:16:18.635Z,26.8
2023-03-29T12:17:20.515Z,26.8
2023-03-29T12:18:22.363Z,26.8
2023-03-29T12:19:24.213Z,26.8
2023-03-29T12:20:26.248Z,26.8
2023-03-29T12:21:28.182Z,26.8
2023-03-29T12:22:30.066Z,26.8
2023-03-29T12:23:31.919Z,26.8
2023-03-29T12:24:33.762Z,26.8
2023-03-29T12:25:35.570Z,26.8
2023-03-29T12:26:37.462Z,26.7
2023-03-29T12:27:39.227Z,26.7
2023-03-29T12:28:41.184Z,26.7
2023-03-29T12:29:43.099Z,26.8
2023-03-29T12:30:44.965Z,26.8
2023-03-29T12:31:46.753Z,26.8
2023-03-29T12:32:48.542Z,26.8
2023-03-29T12:33:50.429Z,26.9
2023-03-29T12:34:52.372Z,26.9
2023-03-29T12:35:54.304Z,26.9
2023-03-29T12:36:56.392Z,26.9
2023-03-29T12:37:58.267Z,26.9
2023-03-29T12:39:00.172Z,26.9
2023-03-29T12:40:02.110Z,26.9
2023-03-29T12:41:04.215Z,26.8
2023-03-29T12:42:06.937Z,26.8
2023-03-29T12:43:09.705Z,26.8
2023-03-29T12:44:11.882Z,26.8
2023-03-29T12:45:13.735Z,26.8
2023-03-29T12:46:15.665Z,26.8
2023-03-29T12:47:17.951Z,26.7
2023-03-29T12:48:19.804Z,26.8
2023-03-29T12:49:21.556Z,26.7
2023-03-29T12:50:23.585Z,26.7
2023-03-29T12:51:25.676Z,26.7
2023-03-29T12:52:27.576Z,26.7
2023-03-29T12:53:29.460Z,26.7
2023-03-29T12:54:31.384Z,26.7
2023-03-29T12:55:33.260Z,26.7
2023-03-29T12:56:35.113Z,26.7
2023-03-29T12:57:36.967Z,26.7
2023-03-29T12:58:38.817Z,26.7
2023-03-29T12:59:41.029Z,26.7
2023-03-29T13:00:42.895Z,26.6
2023-03-29T13:01:45.110Z,26.6
2023-03-29T13:02:47.510Z,26.7
2023-03-29T13:03:49.595Z,26.7
2023-03-29T13:04:51.479Z,26.7
2023-03-29T13:05:53.554Z,26.7
2023-03-29T13:06:55.626Z,26.7
2023-03-29T13:07:57.532Z,26.7
2023-03-29T13:08:59.243Z,26.7
2023-03-29T13:10:01.011Z,26.7
2023-03-29T13:11:02.920Z,26.7
2023-03-29T13:12:04.812Z,26.7
2023-03-29T13:13:06.528Z,26.7
2023-03-29T13:14:08.411Z,26.7
2023-03-29T13:15:10.156Z,26.7
2023-03-29T13:16:12.205Z,26.7
2023-03-29T13:17:18.586Z,26.6
2023-03-29T13:18:21.146Z,26.7
2023-03-29T13:19:22.981Z,26.7
2023-03-29T13:20:24.922Z,26.6
2023-03-29T13:21:26.836Z,26.7
2023-03-29T13:22:28.753Z,26.6
2023-03-29T13:23:30.524Z,26.7
2023-03-29T13:24:32.270Z,26.7
2023-03-29T13:25:34.190Z,26.7
2023-03-29T13:26:36.108Z,26.7
2023-03-29T13:27:37.928Z,26.7
2023-03-29T13:28:39.835Z,26.7
2023-03-29T13:29:41.745Z,26.7
2023-03-29T13:30:43.542Z,26.6
2023-03-29T13:31:45.576Z,26.6
2023-03-29T13:32:47.455Z,26.6
2023-03-29T13:33:49.636Z,26.6
2023-03-29T13:34:51.996Z,26.6
2023-03-29T13:35:53.820Z,26.6
2023-03-29T13:36:55.975Z,26.6
2023-03-29T13:37:57.863Z,26.6
2023-03-29T13:38:59.877Z,26.6
2023-03-29T13:40:01.818Z,26.6
2023-03-29T13:41:03.679Z,26.6
2023-03-29T13:42:05.429Z,26.6
2023-03-29T13:43:07.251Z,26.6
2023-03-29T13:44:09.160Z,26.5
2023-03-29T13:45:10.876Z,26.5
2023-03-29T13:46:12.727Z,26.6
2023-03-29T13:47:14.774Z,26.6
2023-03-29T13:48:16.566Z,26.6